Time;durP1;ratioP1;P1;durP2;ratioP2;P2;SDS_P1;SDS_P2;PMS_P1;PMS_P2;Temp;Humidity;BMP_temperature;BMP_pressure;BME280_temperature;BME280_humidity;BME280_pressure;Samples;Min_cycle;Max_cycle;Signal;HPM_P1;HPM_P2
2022/07/08 00:01:15;;;;;;;1.48;0.20;;;16.80;67.80;;;;;;4950861;28;20050;-79
2022/07/08 00:03:43;;;;;;;1.67;0.20;;;16.70;67.80;;;;;;4952484;28;20460;-79
2022/07/08 00:06:10;;;;;;;2.47;0.20;;;16.70;67.80;;;;;;4945927;28;20043;-79
2022/07/08 00:08:40;;;;;;;0.98;0.22;;;16.70;67.90;;;;;;4947105;28;20074;-78
2022/07/08 00:11:07;;;;;;;0.60;0.17;;;16.70;67.90;;;;;;4919947;29;20036;-79
2022/07/08 00:13:34;;;;;;;1.15;0.20;;;16.70;68.00;;;;;;4927058;28;20055;-79
2022/07/08 00:16:01;;;;;;;2.33;0.20;;;16.70;68.00;;;;;;4918943;29;20111;-79
2022/07/08 00:18:28;;;;;;;1.90;0.20;;;16.70;68.10;;;;;;4934667;29;20051;-79
2022/07/08 00:20:55;;;;;;;0.93;0.20;;;16.60;68.10;;;;;;4953457;28;20051;-79
2022/07/08 00:23:23;;;;;;;0.98;0.10;;;16.60;68.20;;;;;;4937828;29;20036;-78
2022/07/08 00:25:50;;;;;;;1.30;0.20;;;16.60;68.30;;;;;;4950387;28;20409;-79
2022/07/08 00:28:16;;;;;;;3.03;0.38;;;16.50;68.40;;;;;;4957650;28;20129;-79
2022/07/08 00:30:44;;;;;;;1.95;0.20;;;16.50;68.60;;;;;;4918981;29;20468;-79
2022/07/08 00:33:11;;;;;;;1.73;0.38;;;16.40;68.60;;;;;;4948025;28;20381;-79
2022/07/08 00:35:38;;;;;;;3.35;0.22;;;16.40;68.70;;;;;;4950125;29;20044;-79
2022/07/08 00:38:05;;;;;;;1.60;0.20;;;16.40;68.80;;;;;;4954322;28;20055;-79
2022/07/08 00:40:34;;;;;;;0.88;0.20;;;16.30;68.80;;;;;;4950117;29;20078;-78
2022/07/08 00:43:01;;;;;;;1.98;0.20;;;16.30;69.00;;;;;;4950103;28;20075;-79
2022/07/08 00:45:28;;;;;;;1.27;0.30;;;16.30;69.20;;;;;;4946282;28;20040;-79
2022/07/08 00:47:55;;;;;;;2.63;0.30;;;16.20;69.20;;;;;;4950032;28;20035;-78
2022/07/08 00:50:22;;;;;;;2.30;0.30;;;16.20;69.30;;;;;;4920864;29;20137;-79
2022/07/08 00:52:49;;;;;;;3.05;0.20;;;16.20;69.40;;;;;;4934197;28;20428;-79
2022/07/08 00:55:17;;;;;;;1.17;0.20;;;16.20;69.50;;;;;;4949975;29;20652;-78
2022/07/08 00:57:47;;;;;;;2.08;0.20;;;16.20;69.50;;;;;;4934242;29;20456;-78
2022/07/08 01:00:14;;;;;;;0.75;0.20;;;16.20;69.50;;;;;;4937721;28;20044;-78
2022/07/08 01:02:41;;;;;;;2.38;0.20;;;16.20;69.50;;;;;;4943135;29;20056;-79
2022/07/08 01:05:08;;;;;;;3.08;0.30;;;16.20;69.50;;;;;;4949878;29;20036;-79
2022/07/08 01:07:35;;;;;;;4.43;0.40;;;16.20;69.50;;;;;;4953397;28;20384;-78
2022/07/08 01:10:04;;;;;;;0.98;0.20;;;16.20;69.50;;;;;;4944215;28;20047;-78
2022/07/08 01:12:31;;;;;;;1.27;0.20;;;16.20;69.60;;;;;;4956966;28;20051;-79
2022/07/08 01:14:58;;;;;;;1.95;0.30;;;16.20;69.60;;;;;;4952962;28;20105;-79
2022/07/08 01:17:43;;;;;;;3.35;0.55;;;16.20;69.60;;;;;;4948964;29;20102;-79
2022/07/08 01:20:12;;;;;;;0.90;0.10;;;16.20;70.30;;;;;;4955007;28;20066;-78
2022/07/08 01:22:39;;;;;;;1.85;0.10;;;16.20;69.70;;;;;;4950897;28;20079;-78
2022/07/08 01:25:07;;;;;;;4.03;0.20;;;16.20;69.70;;;;;;4933049;28;20451;-78
2022/07/08 01:27:35;;;;;;;2.92;0.30;;;16.10;69.80;;;;;;4949552;28;20068;-78
2022/07/08 01:30:04;;;;;;;2.42;0.30;;;16.10;69.80;;;;;;4934038;28;20047;-78
2022/07/08 01:32:41;;;;;;;1.60;0.10;;;16.10;69.90;;;;;;4950822;28;20504;-78
2022/07/08 01:35:11;;;;;;;1.70;0.22;;;16.10;70.00;;;;;;4949716;28;20056;-78
2022/07/08 01:37:38;;;;;;;2.88;0.30;;;16.00;70.10;;;;;;4933694;29;20107;-79
2022/07/08 01:40:05;;;;;;;1.33;0.20;;;16.00;70.20;;;;;;4904741;29;20052;-78
2022/07/08 01:42:32;;;;;;;1.40;0.20;;;16.00;70.30;;;;;;4933574;28;20114;-79
2022/07/08 01:44:59;;;;;;;3.50;0.52;;;15.90;70.30;;;;;;4917604;29;20055;-79
2022/07/08 01:47:26;;;;;;;3.13;0.20;;;15.90;70.40;;;;;;4942841;29;20035;-79
2022/07/08 01:49:53;;;;;;;3.60;0.20;;;15.90;70.50;;;;;;4927789;29;20110;-79
2022/07/08 01:52:20;;;;;;;2.97;0.30;;;15.90;70.60;;;;;;4930369;29;20052;-79
2022/07/08 01:54:47;;;;;;;0.68;0.20;;;15.90;70.60;;;;;;4956120;28;20085;-78
2022/07/08 01:57:14;;;;;;;1.10;0.20;;;15.80;70.60;;;;;;4939070;28;20114;-79
2022/07/08 01:59:46;;;;;;;1.73;0.30;;;15.90;70.60;;;;;;4942575;28;20075;-78
2022/07/08 02:02:15;;;;;;;2.97;0.25;;;15.90;70.60;;;;;;4937823;28;20047;-78
2022/07/08 02:04:42;;;;;;;1.33;0.43;;;15.90;70.70;;;;;;4949267;28;20048;-79
2022/07/08 02:07:09;;;;;;;0.70;0.30;;;15.90;70.60;;;;;;4946145;28;20087;-79
2022/07/08 02:09:37;;;;;;;1.08;0.30;;;15.90;70.60;;;;;;4926828;28;20479;-78
2022/07/08 02:12:20;;;;;;;0.98;0.30;;;15.90;70.60;;;;;;4967123;28;20051;-79
2022/07/08 02:14:49;;;;;;;1.63;0.25;;;16.00;70.60;;;;;;4949376;29;20135;-79
2022/07/08 02:17:18;;;;;;;0.75;0.20;;;16.00;70.60;;;;;;4936455;28;20119;-78
2022/07/08 02:19:47;;;;;;;2.30;0.20;;;16.00;70.60;;;;;;4933285;29;20570;-79
2022/07/08 02:22:15;;;;;;;1.45;0.10;;;16.00;70.60;;;;;;4952646;28;20047;-79
2022/07/08 02:24:42;;;;;;;1.35;0.60;;;16.00;70.60;;;;;;4959952;28;20044;-79
2022/07/08 02:27:10;;;;;;;2.08;0.17;;;16.00;70.60;;;;;;4917132;29;20047;-78
2022/07/08 02:29:36;;;;;;;1.85;0.13;;;16.00;70.60;;;;;;4949821;28;20054;-79
2022/07/08 02:32:04;;;;;;;0.20;0.10;;;16.00;70.60;;;;;;4923356;29;20058;-79
2022/07/08 02:34:32;;;;;;;1.67;0.20;;;16.00;70.70;;;;;;4931071;29;20118;-79
2022/07/08 02:36:58;;;;;;;2.45;0.28;;;15.90;70.70;;;;;;4944939;29;20048;-79
2022/07/08 02:39:25;;;;;;;1.08;0.20;;;15.90;70.80;;;;;;4952306;28;20563;-79
2022/07/08 02:41:53;;;;;;;3.38;0.20;;;15.80;70.80;;;;;;4959607;28;20079;-78
2022/07/08 02:44:20;;;;;;;1.58;0.20;;;15.80;70.90;;;;;;4952181;28;20130;-79
2022/07/08 02:46:47;;;;;;;3.53;0.30;;;15.70;71.00;;;;;;4922897;28;20122;-79
2022/07/08 02:49:14;;;;;;;3.15;0.20;;;15.70;71.20;;;;;;4955460;28;20376;-79
2022/07/08 02:51:41;;;;;;;1.75;0.20;;;15.60;71.20;;;;;;4936550;29;20135;-78
2022/07/08 02:54:08;;;;;;;1.95;0.30;;;15.50;71.40;;;;;;4946368;28;20111;-78
2022/07/08 02:56:35;;;;;;;3.40;0.28;;;15.50;71.50;;;;;;4936127;29;20071;-79
2022/07/08 02:59:03;;;;;;;1.83;0.43;;;15.50;71.60;;;;;;4929193;29;20099;-78
2022/07/08 03:01:31;;;;;;;2.15;0.20;;;15.50;71.60;;;;;;4960886;28;20079;-78
2022/07/08 03:03:59;;;;;;;1.77;0.20;;;15.50;71.70;;;;;;4951243;29;20039;-79
2022/07/08 03:06:26;;;;;;;1.58;0.20;;;15.40;71.80;;;;;;4949863;29;20047;-78
2022/07/08 03:08:53;;;;;;;1.35;0.20;;;15.40;71.80;;;;;;4953516;28;20110;-79
2022/07/08 03:11:20;;;;;;;2.25;0.20;;;15.30;71.90;;;;;;4942975;29;20126;-78
2022/07/08 03:13:47;;;;;;;2.60;0.32;;;15.30;72.10;;;;;;4932561;29;20499;-78
2022/07/08 03:16:14;;;;;;;1.23;0.20;;;15.20;72.20;;;;;;4932549;29;20468;-79
2022/07/08 03:18:41;;;;;;;0.45;0.10;;;15.10;72.30;;;;;;4943773;28;20055;-78
2022/07/08 03:21:08;;;;;;;3.45;0.20;;;15.10;72.50;;;;;;4923070;29;20079;-78
2022/07/08 03:23:35;;;;;;;1.80;0.22;;;15.10;72.60;;;;;;4951462;28;20208;-79
2022/07/08 03:26:02;;;;;;;0.93;0.20;;;15.00;72.70;;;;;;4919920;29;20047;-78
2022/07/08 03:28:29;;;;;;;1.85;0.20;;;15.00;72.90;;;;;;4951902;28;20155;-78
2022/07/08 03:30:57;;;;;;;2.63;0.20;;;15.00;73.00;;;;;;4963476;28;20411;-79
2022/07/08 03:33:24;;;;;;;1.48;0.20;;;14.90;73.00;;;;;;4957103;28;20631;-78
2022/07/08 03:35:51;;;;;;;2.30;0.30;;;14.90;73.20;;;;;;4936354;28;20500;-79
2022/07/08 03:38:18;;;;;;;1.85;0.20;;;14.80;73.80;;;;;;4922437;29;20118;-78
2022/07/08 03:43:31;;;;;;;1.70;0.20;;;14.80;73.40;;;;;;4939900;28;20051;-79
2022/07/08 03:45:58;;;;;;;1.40;0.20;;;14.80;73.50;;;;;;4926899;29;20052;-79
2022/07/08 03:48:31;;;;;;;1.67;0.43;;;14.80;73.60;;;;;;4922811;29;20102;-78
2022/07/08 03:50:59;;;;;;;1.30;0.10;;;14.80;73.80;;;;;;4924962;29;20055;-78
2022/07/08 03:53:26;;;;;;;1.38;0.20;;;14.70;73.80;;;;;;4919566;29;20051;-78
2022/07/08 03:55:55;;;;;;;3.80;0.40;;;14.70;73.80;;;;;;4935519;29;20039;-78
2022/07/08 03:58:22;;;;;;;0.90;0.30;;;14.60;74.00;;;;;;4951145;28;20115;-78
2022/07/08 04:00:49;;;;;;;1.95;0.30;;;14.60;74.10;;;;;;4950808;29;20114;-78
2022/07/08 04:03:16;;;;;;;1.05;0.30;;;14.60;74.20;;;;;;4948136;28;20050;-79
2022/07/08 04:05:43;;;;;;;2.10;0.40;;;14.50;74.40;;;;;;4948593;28;20044;-78
2022/07/08 04:08:10;;;;;;;2.72;0.32;;;14.50;74.50;;;;;;4945594;28;20052;-78
2022/07/08 04:10:37;;;;;;;1.60;0.20;;;14.50;74.50;;;;;;4958988;28;20488;-78
2022/07/08 04:13:04;;;;;;;1.70;0.40;;;14.60;74.50;;;;;;4950952;28;20134;-78
2022/07/08 04:15:33;;;;;;;2.58;0.30;;;14.60;74.60;;;;;;4923695;29;20054;-78
2022/07/08 04:18:00;;;;;;;5.22;0.30;;;14.60;74.60;;;;;;4950894;29;20138;-78
2022/07/08 04:20:28;;;;;;;5.18;0.55;;;14.60;74.60;;;;;;4950906;28;20440;-78
2022/07/08 04:22:55;;;;;;;2.47;0.30;;;14.60;74.60;;;;;;4950692;28;20044;-78
2022/07/08 04:25:22;;;;;;;1.38;0.30;;;14.60;74.60;;;;;;4950798;28;20134;-78
2022/07/08 04:27:48;;;;;;;1.85;0.30;;;14.60;74.70;;;;;;4934581;28;20090;-78
2022/07/08 04:30:16;;;;;;;4.00;0.30;;;14.60;75.30;;;;;;4938748;28;20066;-78
2022/07/08 04:32:43;;;;;;;1.25;0.20;;;14.70;74.80;;;;;;4936106;28;20071;-80
2022/07/08 04:35:09;;;;;;;5.32;0.38;;;14.70;74.80;;;;;;4927716;28;20471;-81
2022/07/08 04:37:36;;;;;;;2.72;0.30;;;14.70;75.00;;;;;;4950461;29;20484;-80
2022/07/08 04:40:04;;;;;;;3.28;0.63;;;14.80;75.00;;;;;;4934656;29;20131;-81
2022/07/08 04:42:31;;;;;;;3.05;0.52;;;14.80;74.90;;;;;;4939171;28;20496;-81
2022/07/08 04:44:58;;;;;;;3.08;0.40;;;14.90;74.90;;;;;;4950400;28;20048;-81
2022/07/08 04:47:25;;;;;;;2.00;0.30;;;15.00;74.80;;;;;;4943869;28;20052;-81
2022/07/08 04:49:52;;;;;;;3.25;0.20;;;15.00;74.70;;;;;;4936680;28;20067;-81
2022/07/08 04:52:19;;;;;;;3.53;0.40;;;15.10;74.70;;;;;;4950020;29;20043;-80
2022/07/08 04:54:46;;;;;;;4.93;0.50;;;15.00;74.80;;;;;;4940135;28;20055;-81
2022/07/08 04:57:13;;;;;;;3.38;0.40;;;15.00;74.90;;;;;;4933455;29;20506;-81
2022/07/08 04:59:40;;;;;;;2.45;0.50;;;15.10;74.90;;;;;;4944159;28;20115;-80
2022/07/08 05:02:07;;;;;;;3.35;0.60;;;15.10;74.90;;;;;;4935354;29;20134;-81
2022/07/08 05:04:36;;;;;;;2.17;0.57;;;15.10;75.10;;;;;;4924758;29;20039;-81
2022/07/08 05:07:03;;;;;;;3.30;0.50;;;15.10;75.10;;;;;;4949905;28;20048;-81
2022/07/08 05:09:30;;;;;;;4.18;0.45;;;15.10;75.20;;;;;;4949982;28;20048;-80
2022/07/08 05:11:57;;;;;;;4.60;0.52;;;15.10;75.20;;;;;;4931824;28;20048;-81
2022/07/08 05:14:24;;;;;;;2.40;0.50;;;15.00;75.30;;;;;;4921623;28;20048;-81
2022/07/08 05:16:51;;;;;;;2.95;0.40;;;15.00;75.40;;;;;;4933794;29;20444;-81
2022/07/08 05:19:18;;;;;;;1.60;0.30;;;15.00;75.50;;;;;;4920474;28;20052;-81
2022/07/08 05:21:52;;;;;;;2.20;0.32;;;15.00;75.60;;;;;;4928145;29;20047;-81
2022/07/08 05:24:19;;;;;;;2.22;0.63;;;15.00;76.20;;;;;;4953214;28;20072;-81
2022/07/08 05:26:45;;;;;;;2.75;0.40;;;15.00;75.60;;;;;;4942069;28;20563;-81
2022/07/08 05:29:12;;;;;;;2.90;0.30;;;15.10;75.50;;;;;;4936257;28;20122;-81
2022/07/08 05:31:42;;;;;;;1.75;0.20;;;15.20;75.30;;;;;;4930534;29;20143;-81
2022/07/08 05:34:09;;;;;;;2.45;0.40;;;15.40;75.20;;;;;;4929967;29;20071;-81
2022/07/08 05:36:36;;;;;;;4.50;0.35;;;15.50;75.00;;;;;;4933624;29;20086;-81
2022/07/08 05:39:03;;;;;;;1.55;0.40;;;15.60;75.00;;;;;;4939122;28;20083;-81
2022/07/08 05:41:30;;;;;;;3.10;0.38;;;15.70;74.80;;;;;;4930292;28;20099;-81
2022/07/08 05:43:56;;;;;;;5.65;0.60;;;15.80;74.70;;;;;;4920493;28;20075;-81
2022/07/08 05:46:23;;;;;;;2.80;0.40;;;15.90;74.70;;;;;;4947978;28;20032;-80
2022/07/08 05:48:50;;;;;;;4.18;0.68;;;16.00;74.50;;;;;;4920057;29;20103;-83
2022/07/08 05:51:17;;;;;;;2.33;0.20;;;16.10;74.30;;;;;;4920887;29;20130;-82
2022/07/08 05:53:45;;;;;;;3.70;0.40;;;16.10;74.40;;;;;;4917512;29;20075;-86
2022/07/08 05:56:12;;;;;;;2.80;0.30;;;16.10;74.50;;;;;;4934012;28;20051;-86
2022/07/08 05:58:39;;;;;;;2.85;0.40;;;16.00;74.50;;;;;;4956046;28;20087;-86
2022/07/08 06:01:06;;;;;;;4.40;0.60;;;16.00;74.60;;;;;;4949429;28;20122;-85
2022/07/08 06:03:33;;;;;;;4.63;0.50;;;16.00;74.80;;;;;;4917984;28;20459;-86
2022/07/08 06:06:00;;;;;;;2.83;0.43;;;15.90;74.90;;;;;;4914308;29;20044;-86
2022/07/08 06:08:28;;;;;;;2.80;0.40;;;16.00;74.90;;;;;;4940917;29;20079;-85
2022/07/08 06:10:56;;;;;;;1.75;0.30;;;16.10;74.80;;;;;;4963922;28;20114;-85
2022/07/08 06:13:23;;;;;;;4.55;0.40;;;16.20;74.70;;;;;;4940286;28;20052;-85
2022/07/08 06:15:50;;;;;;;4.95;0.30;;;16.40;74.50;;;;;;4964797;28;20070;-85
2022/07/08 06:18:17;;;;;;;3.58;0.32;;;16.50;74.20;;;;;;4963647;28;20146;-80
2022/07/08 06:20:46;;;;;;;3.80;0.40;;;16.60;74.00;;;;;;4959182;28;20051;-80
2022/07/08 06:23:13;;;;;;;2.15;0.40;;;16.80;73.80;;;;;;4941990;29;20131;-83
2022/07/08 06:25:40;;;;;;;2.83;0.50;;;16.90;73.70;;;;;;4966815;28;20043;-82
2022/07/08 06:28:07;;;;;;;4.18;0.32;;;17.00;73.50;;;;;;4963840;28;20071;-81
2022/07/08 06:30:34;;;;;;;2.22;0.30;;;17.10;73.30;;;;;;4935275;29;20428;-83
2022/07/08 06:33:02;;;;;;;2.05;0.50;;;17.20;73.20;;;;;;4953230;28;20051;-83
2022/07/08 06:35:29;;;;;;;3.50;0.30;;;17.30;73.00;;;;;;4966860;28;20055;-85
2022/07/08 06:37:56;;;;;;;2.40;0.30;;;17.40;72.90;;;;;;4961938;28;20072;-84
2022/07/08 06:40:23;;;;;;;1.83;0.30;;;17.60;72.70;;;;;;4905622;29;20583;-85
2022/07/08 06:42:51;;;;;;;0.88;0.40;;;17.70;72.50;;;;;;4923126;28;20044;-85
2022/07/08 06:45:18;;;;;;;1.55;0.30;;;17.80;72.40;;;;;;4936780;28;20040;-85
2022/07/08 06:47:46;;;;;;;1.88;0.40;;;17.90;72.30;;;;;;4958937;28;20456;-85
2022/07/08 06:50:13;;;;;;;4.28;0.68;;;17.90;72.20;;;;;;4943341;28;20052;-85
2022/07/08 06:52:40;;;;;;;2.17;0.60;;;18.00;72.10;;;;;;4920930;29;20043;-86
2022/07/08 06:55:07;;;;;;;3.63;0.40;;;18.00;72.00;;;;;;4908173;29;20408;-84
2022/07/08 06:57:34;;;;;;;5.18;0.50;;;18.00;72.00;;;;;;4952397;28;20055;-86
2022/07/08 07:00:02;;;;;;;1.15;0.38;;;18.00;72.00;;;;;;4952359;28;20052;-85
2022/07/08 07:02:47;;;;;;;3.30;0.40;;;18.00;72.00;;;;;;4933140;29;20055;-85
2022/07/08 07:05:15;;;;;;;1.65;0.40;;;18.20;71.90;;;;;;4942864;28;20043;-85
2022/07/08 07:07:42;;;;;;;1.67;0.30;;;18.20;71.70;;;;;;4947785;28;20051;-86
2022/07/08 07:10:09;;;;;;;3.20;0.40;;;18.30;71.60;;;;;;4952147;28;20044;-85
2022/07/08 07:12:36;;;;;;;2.35;0.30;;;18.30;71.60;;;;;;4920378;29;20047;-85
2022/07/08 07:15:04;;;;;;;1.52;0.28;;;18.50;71.50;;;;;;4951875;28;20079;-85
2022/07/08 07:17:31;;;;;;;2.95;0.40;;;18.50;71.10;;;;;;4951063;28;20048;-84
2022/07/08 07:19:58;;;;;;;3.53;0.52;;;18.50;71.00;;;;;;4920467;29;20056;-86
2022/07/08 07:22:26;;;;;;;4.00;0.40;;;18.50;70.90;;;;;;4922605;28;20051;-84
2022/07/08 07:24:53;;;;;;;2.83;0.52;;;18.50;70.80;;;;;;4920284;29;20059;-81
2022/07/08 07:27:20;;;;;;;3.83;0.50;;;18.60;70.90;;;;;;4951545;29;20068;-81
2022/07/08 07:29:47;;;;;;;1.83;0.30;;;18.60;71.40;;;;;;4946552;29;20132;-85
2022/07/08 07:32:14;;;;;;;1.90;0.40;;;18.60;70.90;;;;;;4933071;29;20119;-86
2022/07/08 07:34:41;;;;;;;0.70;0.20;;;18.60;71.00;;;;;;4932896;29;20044;-86
2022/07/08 07:37:08;;;;;;;3.28;0.63;;;18.80;70.80;;;;;;4952294;28;20413;-86
2022/07/08 07:39:35;;;;;;;3.50;0.32;;;18.90;70.40;;;;;;4938663;29;20507;-87
2022/07/08 07:42:03;;;;;;;5.78;0.50;;;18.90;70.10;;;;;;4944627;28;20087;-86
2022/07/08 07:44:30;;;;;;;2.97;0.47;;;18.90;70.00;;;;;;4936015;29;20050;-86
2022/07/08 07:46:57;;;;;;;3.00;0.50;;;19.00;70.10;;;;;;4955557;28;20054;-87
2022/07/08 07:49:24;;;;;;;4.15;0.73;;;19.10;69.80;;;;;;4939889;28;20059;-79
2022/07/08 07:51:51;;;;;;;3.35;0.50;;;19.20;69.70;;;;;;4919804;29;20098;-85
2022/07/08 07:54:18;;;;;;;2.53;0.40;;;19.20;69.40;;;;;;4929336;29;20086;-83
2022/07/08 07:56:54;;;;;;;2.88;0.25;;;19.30;69.40;;;;;;4951635;28;20060;-86
2022/07/08 07:59:36;;;;;;;3.33;0.50;;;19.30;69.00;;;;;;4929358;28;20055;-86
2022/07/08 08:02:03;;;;;;;3.80;0.80;;;19.30;68.70;;;;;;4961509;28;20460;-87
2022/07/08 08:04:31;;;;;;;1.55;0.30;;;19.20;68.80;;;;;;4923804;29;20047;-88
2022/07/08 08:06:58;;;;;;;3.80;0.20;;;19.20;68.90;;;;;;4951564;28;20052;-87
2022/07/08 08:09:26;;;;;;;2.38;0.20;;;19.40;68.90;;;;;;4956688;28;20055;-87
2022/07/08 08:11:53;;;;;;;2.17;0.20;;;19.50;68.60;;;;;;4960844;28;20110;-87
2022/07/08 08:14:21;;;;;;;3.92;0.20;;;19.70;68.30;;;;;;4951200;28;20412;-86
2022/07/08 08:16:48;;;;;;;1.80;0.40;;;20.00;67.90;;;;;;4951170;28;20063;-86
2022/07/08 08:19:15;;;;;;;2.90;0.40;;;20.20;67.40;;;;;;4931634;29;20063;-86
2022/07/08 08:21:42;;;;;;;4.00;0.40;;;20.40;66.60;;;;;;4950910;28;20047;-83
2022/07/08 08:24:09;;;;;;;2.25;0.40;;;20.40;66.40;;;;;;4948174;29;20040;-82
2022/07/08 08:26:37;;;;;;;1.58;0.35;;;20.60;66.30;;;;;;4934738;29;20044;-83
2022/07/08 08:29:04;;;;;;;1.63;0.30;;;20.80;66.10;;;;;;4935820;28;20076;-82
2022/07/08 08:31:34;;;;;;;1.15;0.35;;;21.00;65.80;;;;;;4950549;28;20055;-82
2022/07/08 08:34:01;;;;;;;2.58;0.43;;;21.10;65.70;;;;;;4959367;28;20051;-82
2022/07/08 08:36:28;;;;;;;1.38;0.32;;;21.30;65.70;;;;;;4950466;28;20044;-83
2022/07/08 08:38:55;;;;;;;0.90;0.22;;;21.30;65.40;;;;;;4919280;29;20458;-82
2022/07/08 08:41:23;;;;;;;0.73;0.30;;;21.40;65.40;;;;;;4952702;28;20188;-83
2022/07/08 08:43:50;;;;;;;0.57;0.10;;;21.40;65.40;;;;;;4948830;29;20094;-83
2022/07/08 08:46:23;;;;;;;2.42;0.30;;;21.50;65.30;;;;;;4946211;29;20079;-83
2022/07/08 08:48:56;;;;;;;3.50;0.30;;;21.60;64.40;;;;;;4959741;28;20376;-83
2022/07/08 08:51:23;;;;;;;1.73;0.32;;;21.50;64.00;;;;;;4936454;28;20547;-83
2022/07/08 08:53:53;;;;;;;3.47;0.43;;;21.40;64.10;;;;;;4947617;28;20655;-82
2022/07/08 08:56:20;;;;;;;1.77;0.40;;;21.40;64.10;;;;;;4954693;28;20112;-83
2022/07/08 08:58:47;;;;;;;2.42;0.30;;;21.40;64.20;;;;;;4950009;29;20098;-82
2022/07/08 09:01:16;;;;;;;2.60;0.30;;;21.30;64.00;;;;;;4934182;29;20063;-82
2022/07/08 09:03:44;;;;;;;2.95;0.32;;;21.20;64.20;;;;;;4955860;28;20044;-82
2022/07/08 09:06:11;;;;;;;0.88;0.20;;;21.10;64.20;;;;;;4928034;28;20103;-82
2022/07/08 09:08:39;;;;;;;0.80;0.22;;;21.10;64.40;;;;;;4918465;29;20106;-82
2022/07/08 09:11:07;;;;;;;2.72;0.30;;;21.10;64.60;;;;;;4949861;29;20488;-82
2022/07/08 09:13:34;;;;;;;1.38;0.17;;;21.00;64.60;;;;;;4949852;28;20126;-82
2022/07/08 09:16:08;;;;;;;1.70;0.30;;;21.10;64.70;;;;;;4927523;29;20065;-82
2022/07/08 09:18:38;;;;;;;3.33;0.22;;;21.10;64.80;;;;;;4952590;28;20106;-81
2022/07/08 09:21:07;;;;;;;1.63;0.20;;;21.20;64.70;;;;;;4963130;28;20091;-82
2022/07/08 09:23:38;;;;;;;1.17;0.30;;;21.40;64.50;;;;;;4934175;29;20050;-82
2022/07/08 09:26:08;;;;;;;2.40;0.20;;;21.40;64.20;;;;;;4949847;28;20078;-82
2022/07/08 09:28:37;;;;;;;2.95;0.40;;;21.30;64.30;;;;;;4953145;28;20709;-82
2022/07/08 09:31:09;;;;;;;1.88;0.28;;;21.40;64.40;;;;;;4954156;28;20043;-82
2022/07/08 09:33:37;;;;;;;1.58;0.30;;;21.50;64.40;;;;;;4959627;28;20224;-83
2022/07/08 09:36:05;;;;;;;1.17;0.30;;;21.50;64.10;;;;;;4935895;28;20047;-82
2022/07/08 09:38:35;;;;;;;0.70;0.20;;;21.80;64.00;;;;;;4962481;28;20515;-82
2022/07/08 09:41:05;;;;;;;1.38;0.30;;;22.20;63.40;;;;;;4939649;28;20062;-83
2022/07/08 09:43:52;;;;;;;1.15;0.20;;;22.60;63.00;;;;;;4963655;28;20051;-82
2022/07/08 09:46:20;;;;;;;2.33;0.35;;;23.00;62.00;;;;;;4952664;28;20139;-83
2022/07/08 09:48:48;;;;;;;0.55;0.20;;;23.20;61.50;;;;;;4933306;29;20047;-83
2022/07/08 09:51:16;;;;;;;2.17;0.50;;;23.30;61.70;;;;;;4939841;29;20171;-82
2022/07/08 09:53:44;;;;;;;1.70;0.45;;;23.60;61.40;;;;;;4938148;29;20058;-82
2022/07/08 09:56:11;;;;;;;1.85;0.30;;;23.90;61.00;;;;;;4928479;29;20051;-82
2022/07/08 09:58:38;;;;;;;0.85;0.20;;;24.10;60.50;;;;;;4964425;28;20047;-83
2022/07/08 10:01:06;;;;;;;0.88;0.20;;;24.20;59.80;;;;;;4933448;28;20066;-82
2022/07/08 10:03:35;;;;;;;1.55;0.30;;;24.30;59.80;;;;;;4936222;28;20069;-83
2022/07/08 10:06:03;;;;;;;1.35;0.30;;;24.10;59.80;;;;;;4957253;28;20051;-82
2022/07/08 10:08:31;;;;;;;1.98;0.30;;;23.80;59.70;;;;;;4957322;28;20411;-82
2022/07/08 10:11:05;;;;;;;0.50;0.30;;;23.50;60.40;;;;;;4958018;28;20456;-84
2022/07/08 10:13:34;;;;;;;2.15;0.20;;;23.30;60.70;;;;;;4954037;28;20139;-87
2022/07/08 10:16:05;;;;;;;1.25;0.30;;;23.20;61.00;;;;;;4937942;29;20051;-88
2022/07/08 10:18:41;;;;;;;1.40;0.20;;;23.30;60.70;;;;;;4947942;29;20048;-88
2022/07/08 10:21:16;;;;;;;1.83;0.35;;;23.40;60.30;;;;;;4919801;28;20044;-88
2022/07/08 10:23:50;;;;;;;1.00;0.10;;;23.40;60.20;;;;;;4949774;28;20148;-88
2022/07/08 10:26:44;;;;;;;1.15;0.30;;;23.60;60.00;;;;;;4941884;28;20519;-89
2022/07/08 10:29:40;;;;;;;2.63;0.25;;;23.80;59.60;;;;;;4921245;29;20427;-91
2022/07/08 10:36:52;;;;;;;2.70;0.50;;;23.80;59.00;;;;;;4954373;29;20059;-88
2022/07/08 10:39:40;;;;;;;1.63;0.30;;;23.80;59.00;;;;;;4936589;28;20143;-87
2022/07/08 10:43:07;;;;;;;1.05;0.25;;;23.80;59.10;;;;;;4952849;28;20047;-93
2022/07/08 10:45:59;;;;;;;1.95;0.30;;;23.90;59.00;;;;;;4956902;28;20047;-87
2022/07/08 10:48:45;;;;;;;2.83;0.40;;;23.80;59.00;;;;;;4960094;28;20047;-87
2022/07/08 10:51:24;;;;;;;1.23;0.30;;;23.80;59.10;;;;;;4962586;28;20050;-88
2022/07/08 10:54:09;;;;;;;1.65;0.20;;;24.00;58.90;;;;;;4952618;28;20051;-86
2022/07/08 10:56:56;;;;;;;1.55;0.32;;;24.00;58.80;;;;;;4952668;28;20059;-87
2022/07/08 10:59:43;;;;;;;1.50;0.30;;;24.10;58.60;;;;;;4938860;28;20082;-87
2022/07/08 11:02:16;;;;;;;2.00;0.40;;;24.10;58.40;;;;;;4937658;28;20079;-87
2022/07/08 11:04:53;;;;;;;1.80;0.20;;;24.10;58.30;;;;;;4949927;28;20054;-86
2022/07/08 11:07:26;;;;;;;2.92;0.30;;;24.00;58.50;;;;;;4931519;28;20055;-87
2022/07/08 11:10:11;;;;;;;1.85;0.30;;;24.00;58.40;;;;;;4959691;28;20036;-86
2022/07/08 11:12:59;;;;;;;2.38;0.43;;;24.10;58.10;;;;;;4942247;29;20054;-88
2022/07/08 11:16:06;;;;;;;1.80;0.30;;;24.30;57.80;;;;;;4934250;29;20051;-88
2022/07/08 11:18:49;;;;;;;1.02;0.30;;;24.20;57.70;;;;;;4940903;29;20051;-88
2022/07/08 11:21:38;;;;;;;0.73;0.10;;;24.10;57.80;;;;;;4952957;28;20062;-88
2022/07/08 11:24:52;;;;;;;2.35;0.30;;;24.10;57.80;;;;;;4966449;28;20043;-88
2022/07/08 11:27:28;;;;;;;2.35;0.50;;;24.10;57.70;;;;;;4946755;28;20489;-88
2022/07/08 11:30:00;;;;;;;1.10;0.40;;;24.20;57.50;;;;;;4937161;29;20048;-90
2022/07/08 11:32:31;;;;;;;1.10;0.28;;;24.40;57.40;;;;;;4940102;28;20044;-88
2022/07/08 11:35:06;;;;;;;1.33;0.35;;;24.50;57.00;;;;;;4969027;28;20326;-86
2022/07/08 11:37:40;;;;;;;2.78;0.60;;;24.70;57.50;;;;;;4939617;28;20504;-85
2022/07/08 11:40:08;;;;;;;2.00;0.70;;;24.70;56.40;;;;;;4954009;28;20059;-86
2022/07/08 11:42:47;;;;;;;1.08;0.40;;;24.70;56.40;;;;;;4924180;28;20047;-87
2022/07/08 11:45:21;;;;;;;0.93;0.32;;;24.70;56.60;;;;;;4951353;29;20047;-87
2022/07/08 11:47:52;;;;;;;2.20;0.30;;;24.70;56.90;;;;;;4951864;28;20142;-83
2022/07/08 11:50:23;;;;;;;1.27;0.60;;;24.80;56.60;;;;;;4941411;29;20515;-85
2022/07/08 11:52:50;;;;;;;2.72;0.50;;;25.20;56.30;;;;;;4953317;28;20048;-85
2022/07/08 11:55:17;;;;;;;1.90;0.60;;;25.30;55.80;;;;;;4953779;28;20044;-88
2022/07/08 11:57:47;;;;;;;0.82;0.30;;;25.30;55.60;;;;;;4952079;28;20086;-81
2022/07/08 12:00:15;;;;;;;1.10;0.25;;;25.30;56.00;;;;;;4945905;28;20400;-87
2022/07/08 12:02:42;;;;;;;1.08;0.35;;;25.30;56.30;;;;;;4932234;29;20075;-84
2022/07/08 12:05:10;;;;;;;2.55;0.40;;;25.50;56.10;;;;;;4951186;28;20039;-79
2022/07/08 12:07:51;;;;;;;2.50;0.40;;;25.70;55.70;;;;;;4957739;28;20053;-93
2022/07/08 12:10:22;;;;;;;1.40;0.40;;;25.60;55.70;;;;;;4961710;28;20047;-87
2022/07/08 12:12:56;;;;;;;1.25;0.22;;;25.50;56.10;;;;;;4935300;29;20423;-85
2022/07/08 12:15:34;;;;;;;3.50;0.40;;;25.50;56.00;;;;;;4960016;28;20086;-92
2022/07/08 12:18:03;;;;;;;2.53;0.50;;;25.40;56.20;;;;;;4964938;28;20055;-84
2022/07/08 12:20:56;;;;;;;2.10;0.52;;;25.40;56.00;;;;;;4967415;28;20464;-87
2022/07/08 12:23:23;;;;;;;2.13;0.55;;;25.40;55.90;;;;;;4923685;29;20063;-85
2022/07/08 12:25:54;;;;;;;2.47;0.55;;;25.20;55.90;;;;;;4936171;29;20035;-91
2022/07/08 12:28:24;;;;;;;1.88;0.45;;;25.30;56.00;;;;;;4945863;28;20043;-84
2022/07/08 12:30:51;;;;;;;4.03;0.50;;;25.50;55.90;;;;;;4941069;28;20043;-86
2022/07/08 12:33:28;;;;;;;3.25;0.40;;;25.80;55.70;;;;;;4916123;29;20060;-83
2022/07/08 12:35:56;;;;;;;1.95;0.50;;;25.70;55.40;;;;;;4962625;28;20055;-89
2022/07/08 12:38:30;;;;;;;1.67;0.43;;;25.40;55.90;;;;;;4940949;28;20126;-87
2022/07/08 12:41:19;;;;;;;1.90;0.40;;;25.20;56.20;;;;;;4945147;28;20047;-88
2022/07/08 12:43:51;;;;;;;1.88;0.35;;;24.90;56.70;;;;;;4950925;28;20047;-85
2022/07/08 12:46:22;;;;;;;1.90;0.70;;;24.60;57.20;;;;;;4957857;28;20048;-84
2022/07/08 12:48:49;;;;;;;2.53;0.40;;;24.80;57.30;;;;;;4935911;29;20111;-82
2022/07/08 12:51:17;;;;;;;2.13;0.38;;;24.80;57.00;;;;;;4950442;29;20374;-82
2022/07/08 12:53:45;;;;;;;1.25;0.40;;;24.80;57.00;;;;;;4934832;28;20404;-84
2022/07/08 12:56:11;;;;;;;1.80;0.40;;;24.70;57.30;;;;;;4934588;29;20910;-83
2022/07/08 12:58:38;;;;;;;2.15;0.40;;;24.80;57.30;;;;;;4934783;29;20531;-85
2022/07/08 13:01:06;;;;;;;2.50;0.52;;;24.70;57.50;;;;;;4950728;28;20044;-86
2022/07/08 13:03:33;;;;;;;1.95;0.60;;;24.40;57.70;;;;;;4935644;28;20160;-86
2022/07/08 13:06:01;;;;;;;2.85;0.75;;;24.30;58.00;;;;;;4959382;28;20071;-87
2022/07/08 13:08:28;;;;;;;1.25;0.35;;;24.40;58.00;;;;;;4950462;28;20059;-88